Time;durP1;ratioP1;P1;durP2;ratioP2;P2;SDS_P1;SDS_P2;PMS_P1;PMS_P2;Temp;Humidity;BMP_temperature;BMP_pressure;BME280_temperature;BME280_humidity;BME280_pressure;Samples;Min_cycle;Max_cycle;Signal;HPM_P1;HPM_P2
2023/10/28 00:00:51;;;;;;;6.38;2.13;;;6.60;99.90;;;;;;4981616;28;20046;-57
2023/10/28 00:03:18;;;;;;;5.78;2.33;;;6.60;99.90;;;;;;4991380;28;20038;-55
2023/10/28 00:05:45;;;;;;;4.13;2.33;;;6.60;99.90;;;;;;4993953;28;20999;-55
2023/10/28 00:08:12;;;;;;;7.47;2.75;;;6.60;99.90;;;;;;4982285;28;20051;-54
2023/10/28 00:10:41;;;;;;;4.80;2.42;;;6.60;99.90;;;;;;4984205;28;20054;-55
2023/10/28 00:13:08;;;;;;;4.43;2.47;;;6.60;99.90;;;;;;4970968;28;20040;-55
2023/10/28 00:15:36;;;;;;;3.58;1.80;;;6.60;99.90;;;;;;4994450;28;20129;-56
2023/10/28 00:18:03;;;;;;;6.05;1.00;;;6.70;99.90;;;;;;4977841;28;20054;-57
2023/10/28 00:20:30;;;;;;;1.58;0.88;;;6.80;99.90;;;;;;4994379;28;20054;-58
2023/10/28 00:22:57;;;;;;;2.45;0.70;;;6.80;99.90;;;;;;4987288;28;20046;-54
2023/10/28 00:25:34;;;;;;;1.30;0.73;;;6.80;99.90;;;;;;4994143;28;20046;-57
2023/10/28 00:28:01;;;;;;;2.67;0.60;;;6.80;99.90;;;;;;5002353;28;20379;-58
2023/10/28 00:30:28;;;;;;;;;;;6.80;99.90;;;;;;4979132;28;20446;-58
2023/10/28 00:32:58;;;;;;;1.35;0.75;;;6.90;99.90;;;;;;4973467;28;20481;-56
2023/10/28 00:35:30;;;;;;;1.83;0.60;;;6.80;99.90;;;;;;4993399;28;20400;-55
2023/10/28 00:37:57;;;;;;;2.40;0.50;;;6.70;99.90;;;;;;5001210;28;20124;-59
2023/10/28 00:40:25;;;;;;;2.42;0.70;;;6.70;99.90;;;;;;4993264;28;20054;-58
2023/10/28 00:42:52;;;;;;;0.50;0.40;;;6.50;99.90;;;;;;4976828;28;20144;-58
2023/10/28 00:45:19;;;;;;;1.25;0.50;;;6.40;99.90;;;;;;4994348;28;20040;-58
2023/10/28 00:47:48;;;;;;;2.80;0.57;;;6.40;99.90;;;;;;4976149;28;20049;-58
2023/10/28 00:50:16;;;;;;;1.05;0.50;;;6.40;99.90;;;;;;4981955;28;20132;-55
2023/10/28 00:52:54;;;;;;;1.27;0.30;;;6.40;99.90;;;;;;4970974;28;20054;-58
2023/10/28 00:55:26;;;;;;;1.08;0.50;;;6.50;99.90;;;;;;4992039;28;20093;-58
2023/10/28 00:57:53;;;;;;;0.60;0.60;;;6.60;99.90;;;;;;4976483;28;20050;-57
2023/10/28 01:00:23;;;;;;;3.97;0.88;;;6.70;99.90;;;;;;4961964;28;20481;-58
2023/10/28 01:02:51;;;;;;;1.38;0.60;;;6.80;99.90;;;;;;4962591;28;20457;-58
2023/10/28 01:05:19;;;;;;;11.23;0.85;;;6.80;99.90;;;;;;4981946;28;20491;-58
2023/10/28 01:07:49;;;;;;;0.80;0.50;;;6.90;99.90;;;;;;4998417;28;20042;-58
2023/10/28 01:10:27;;;;;;;0.70;0.47;;;6.90;99.90;;;;;;4975812;28;20050;-59
2023/10/28 01:12:54;;;;;;;2.20;1.10;;;6.90;99.90;;;;;;4981483;28;20050;-58
2023/10/28 01:15:22;;;;;;;5.45;0.88;;;7.00;99.90;;;;;;4991926;28;20057;-58
2023/10/28 01:17:49;;;;;;;1.27;0.70;;;7.00;99.90;;;;;;4961907;28;20047;-59
2023/10/28 01:20:16;;;;;;;2.38;0.77;;;7.00;99.90;;;;;;4986610;28;20041;-57
2023/10/28 01:22:44;;;;;;;4.72;1.13;;;7.00;99.90;;;;;;4966837;28;20069;-58
2023/10/28 01:25:11;;;;;;;1.30;1.02;;;6.90;99.90;;;;;;4989767;28;20125;-58
2023/10/28 01:27:38;;;;;;;;;;;6.80;99.90;;;;;;4986499;28;20140;-58
2023/10/28 01:30:13;;;;;;;4.53;1.20;;;6.80;99.90;;;;;;4967481;28;19922;-57
2023/10/28 01:32:44;;;;;;;3.67;1.33;;;6.90;99.90;;;;;;4985888;28;20549;-59
2023/10/28 01:35:12;;;;;;;4.13;1.42;;;6.90;99.90;;;;;;4971767;28;20053;-58
2023/10/28 01:37:40;;;;;;;6.35;1.90;;;6.80;99.90;;;;;;4975556;28;20054;-59
2023/10/28 01:40:13;;;;;;;3.95;2.30;;;6.80;99.90;;;;;;4993267;28;20516;-58
2023/10/28 01:42:45;;;;;;;2.50;1.67;;;6.90;99.90;;;;;;4974244;28;20050;-58
2023/10/28 01:45:15;;;;;;;3.40;1.75;;;6.90;99.90;;;;;;4964195;28;20047;-57
2023/10/28 01:47:43;;;;;;;2.03;1.48;;;6.90;99.90;;;;;;4975254;28;20506;-57
2023/10/28 01:50:16;;;;;;;5.63;1.50;;;6.90;99.90;;;;;;4972072;28;20042;-58
2023/10/28 01:52:44;;;;;;;2.83;1.70;;;6.90;99.90;;;;;;4971771;28;20082;-58
2023/10/28 01:55:11;;;;;;;2.80;1.90;;;6.90;99.90;;;;;;4990416;28;20133;-57
2023/10/28 01:57:39;;;;;;;1.63;1.45;;;6.90;99.90;;;;;;4984518;28;20042;-58
2023/10/28 02:00:07;;;;;;;;;;;6.90;99.90;;;;;;4967334;28;20526;-58
2023/10/28 02:02:37;;;;;;;3.05;1.80;;;7.00;99.90;;;;;;4986282;28;19922;-57
2023/10/28 02:05:04;;;;;;;3.17;1.20;;;7.10;99.90;;;;;;4992611;28;20097;-58
2023/10/28 02:07:35;;;;;;;;;;;7.10;99.90;;;;;;4964471;28;20050;-58
2023/10/28 02:10:02;;;;;;;1.85;1.33;;;7.10;99.90;;;;;;4992530;28;19922;-57
2023/10/28 02:12:30;;;;;;;3.58;1.50;;;7.20;99.90;;;;;;4964782;28;20051;-58
2023/10/28 02:14:56;;;;;;;3.42;1.33;;;7.30;99.90;;;;;;4979545;28;20636;-57
2023/10/28 02:17:23;;;;;;;2.70;1.33;;;7.40;99.90;;;;;;4972407;28;20049;-58
2023/10/28 02:19:50;;;;;;;7.93;1.80;;;7.50;99.90;;;;;;4992633;28;20118;-58
2023/10/28 02:22:17;;;;;;;5.88;1.98;;;7.50;99.90;;;;;;4975028;28;20050;-59
2023/10/28 02:24:43;;;;;;;2.85;1.95;;;7.60;99.90;;;;;;4985956;28;20052;-58
2023/10/28 02:27:11;;;;;;;3.97;1.70;;;7.60;99.90;;;;;;4973975;28;20050;-58
2023/10/28 02:29:37;;;;;;;3.97;2.33;;;7.60;99.90;;;;;;4991555;28;20045;-59
2023/10/28 02:32:05;;;;;;;;;;;7.60;99.90;;;;;;4974961;28;20039;-58
2023/10/28 02:34:32;;;;;;;3.50;2.15;;;7.60;99.90;;;;;;4981941;28;20424;-58
2023/10/28 02:36:59;;;;;;;2.53;1.63;;;7.70;99.90;;;;;;4969193;28;20053;-57
2023/10/28 02:39:26;;;;;;;6.13;2.10;;;7.70;99.90;;;;;;4992378;28;20399;-59
2023/10/28 02:41:53;;;;;;;;;;;7.70;99.90;;;;;;4971910;28;20135;-58
2023/10/28 02:44:20;;;;;;;3.05;1.88;;;7.70;99.90;;;;;;4988137;28;19922;-58
2023/10/28 02:46:48;;;;;;;2.83;0.75;;;7.70;99.90;;;;;;4988072;28;20109;-59
2023/10/28 02:49:15;;;;;;;1.55;0.77;;;7.60;99.90;;;;;;4954805;28;20074;-58
2023/10/28 02:51:43;;;;;;;4.65;1.05;;;7.60;99.90;;;;;;4955380;28;20070;-58
2023/10/28 02:54:10;;;;;;;4.07;2.22;;;7.60;99.90;;;;;;4988175;28;20453;-59
2023/10/28 02:56:38;;;;;;;4.25;1.88;;;7.50;99.90;;;;;;4970543;28;20409;-58
2023/10/28 02:59:06;;;;;;;2.83;1.10;;;7.50;99.90;;;;;;4989325;28;20051;-59
2023/10/28 03:01:39;;;;;;;4.00;1.10;;;7.50;99.90;;;;;;4963144;28;20142;-59
2023/10/28 03:04:07;;;;;;;0.60;0.57;;;7.50;99.90;;;;;;4974616;28;20089;-58
2023/10/28 03:06:34;;;;;;;3.03;1.10;;;7.50;99.90;;;;;;4963428;28;20050;-59
2023/10/28 03:09:00;;;;;;;2.20;1.00;;;7.50;99.90;;;;;;4970859;28;20039;-58
2023/10/28 03:11:27;;;;;;;2.45;1.15;;;7.60;99.90;;;;;;4986693;28;20042;-58
2023/10/28 03:13:54;;;;;;;2.67;1.30;;;7.50;99.90;;;;;;4978401;28;20054;-59
2023/10/28 03:16:22;;;;;;;2.35;1.30;;;7.50;99.90;;;;;;4968477;28;20830;-59
2023/10/28 03:18:49;;;;;;;7.60;1.45;;;7.50;99.90;;;;;;4959187;28;20133;-58
2023/10/28 03:21:15;;;;;;;2.35;1.42;;;7.50;99.90;;;;;;4974145;28;20046;-58
2023/10/28 03:23:43;;;;;;;2.33;1.00;;;7.40;99.90;;;;;;5000769;28;20073;-58
2023/10/28 03:26:10;;;;;;;2.72;1.13;;;7.50;99.90;;;;;;4969731;28;20050;-59
2023/10/28 03:28:36;;;;;;;1.42;1.15;;;7.40;99.90;;;;;;4974267;28;20043;-58
2023/10/28 03:31:09;;;;;;;3.10;1.42;;;7.40;99.90;;;;;;4995671;28;20035;-59
2023/10/28 03:33:37;;;;;;;2.00;1.45;;;7.50;99.90;;;;;;4979348;28;20057;-58
2023/10/28 03:36:05;;;;;;;4.32;1.20;;;7.60;99.90;;;;;;4995168;28;20480;-58
2023/10/28 03:38:35;;;;;;;1.17;0.98;;;7.50;99.90;;;;;;4976979;28;20050;-58
2023/10/28 03:41:09;;;;;;;4.78;2.10;;;7.50;99.90;;;;;;4990608;28;20234;-59
2023/10/28 03:43:37;;;;;;;6.15;3.25;;;7.50;99.90;;;;;;4992984;28;20509;-58
2023/10/28 03:46:04;;;;;;;6.85;3.50;;;7.50;99.90;;;;;;4989570;28;20049;-58
2023/10/28 03:48:31;;;;;;;4.85;2.85;;;7.50;99.90;;;;;;4975331;28;20050;-59
2023/10/28 03:51:00;;;;;;;5.72;3.05;;;7.60;99.90;;;;;;4978861;28;20038;-58
2023/10/28 03:53:27;;;;;;;7.85;3.88;;;7.60;99.90;;;;;;4991204;28;20046;-59
2023/10/28 03:55:54;;;;;;;6.03;3.47;;;7.50;99.90;;;;;;4994598;28;20092;-59
2023/10/28 03:58:21;;;;;;;4.57;2.80;;;7.50;99.90;;;;;;4978600;28;20098;-59
2023/10/28 04:00:53;;;;;;;4.90;3.20;;;7.60;99.90;;;;;;4976206;28;20043;-59
2023/10/28 04:03:21;;;;;;;4.82;3.25;;;7.70;99.90;;;;;;4983688;28;20046;-59
2023/10/28 04:05:53;;;;;;;5.40;3.58;;;7.70;99.90;;;;;;4975283;28;20047;-58
2023/10/28 04:08:20;;;;;;;5.50;3.58;;;7.80;99.90;;;;;;4980906;28;20399;-57
2023/10/28 04:10:47;;;;;;;5.65;3.55;;;7.80;99.90;;;;;;4994698;28;20050;-58
2023/10/28 04:13:14;;;;;;;5.20;3.30;;;7.90;99.90;;;;;;4980349;28;20038;-58
2023/10/28 04:15:40;;;;;;;5.75;4.03;;;7.90;99.90;;;;;;4974993;28;20043;-59
2023/10/28 04:18:08;;;;;;;5.28;3.67;;;7.90;99.90;;;;;;4989332;28;20049;-58
2023/10/28 04:20:35;;;;;;;4.50;3.53;;;7.80;99.90;;;;;;4994723;28;20507;-59
2023/10/28 04:23:03;;;;;;;9.95;4.05;;;7.70;99.90;;;;;;4991878;28;20042;-58
2023/10/28 04:25:29;;;;;;;;;;;7.60;99.90;;;;;;4991271;28;20061;-59
2023/10/28 04:27:56;;;;;;;6.47;4.00;;;7.50;99.90;;;;;;4986345;28;19957;-58
2023/10/28 04:30:23;;;;;;;7.07;3.72;;;7.50;99.90;;;;;;4978800;28;20050;-59
2023/10/28 04:32:52;;;;;;;5.25;3.42;;;7.50;99.90;;;;;;4993076;28;20038;-59
2023/10/28 04:35:20;;;;;;;7.10;3.55;;;7.40;99.90;;;;;;4994244;28;20561;-58
2023/10/28 04:37:55;;;;;;;6.28;3.88;;;7.40;99.90;;;;;;4985116;28;20125;-57
2023/10/28 04:40:22;;;;;;;7.30;3.75;;;7.30;99.90;;;;;;4992897;28;20038;-59
2023/10/28 04:42:49;;;;;;;6.65;3.65;;;7.30;99.90;;;;;;4994167;28;20050;-56
2023/10/28 04:45:15;;;;;;;5.90;3.97;;;7.30;99.90;;;;;;4994086;28;20038;-57
2023/10/28 04:47:42;;;;;;;8.02;4.97;;;7.30;99.90;;;;;;4984015;28;20051;-58
2023/10/28 04:50:09;;;;;;;8.43;4.65;;;7.20;99.90;;;;;;4982749;28;20045;-59
2023/10/28 04:52:36;;;;;;;6.85;3.70;;;7.30;99.90;;;;;;4974447;28;20415;-58
2023/10/28 04:55:03;;;;;;;8.25;4.00;;;7.20;99.90;;;;;;4981877;28;20034;-59
2023/10/28 04:57:31;;;;;;;7.40;4.13;;;7.20;99.90;;;;;;4992849;28;20042;-58
2023/10/28 04:59:58;;;;;;;;;;;7.20;99.90;;;;;;4986094;28;20042;-58
2023/10/28 05:02:24;;;;;;;4.72;3.55;;;7.20;99.90;;;;;;4991031;28;19926;-58
2023/10/28 05:04:51;;;;;;;6.25;4.10;;;7.20;99.90;;;;;;4993199;28;20145;-59
2023/10/28 05:07:18;;;;;;;5.75;4.57;;;7.10;99.90;;;;;;4993249;28;20052;-59
2023/10/28 05:09:45;;;;;;;7.38;4.55;;;7.00;99.90;;;;;;4985802;28;20046;-59
2023/10/28 05:12:12;;;;;;;6.13;4.28;;;7.00;99.90;;;;;;4987742;28;20488;-58
2023/10/28 05:14:39;;;;;;;6.75;4.63;;;6.90;99.90;;;;;;4983600;28;20490;-58
2023/10/28 05:17:06;;;;;;;5.80;4.50;;;6.90;99.90;;;;;;4974270;28;20038;-58
2023/10/28 05:19:32;;;;;;;7.28;4.47;;;6.90;99.90;;;;;;4982767;28;20069;-58
2023/10/28 05:22:02;;;;;;;7.85;4.50;;;6.90;99.90;;;;;;4993655;28;20049;-59
2023/10/28 05:24:30;;;;;;;6.85;4.25;;;6.90;99.90;;;;;;4989779;28;20081;-58
2023/10/28 05:26:57;;;;;;;6.43;4.03;;;6.90;99.90;;;;;;4993287;28;20438;-59
2023/10/28 05:29:24;;;;;;;8.38;4.55;;;6.90;99.90;;;;;;4993037;28;20522;-59
2023/10/28 05:31:56;;;;;;;6.22;3.58;;;6.90;99.90;;;;;;4989615;28;20053;-58
2023/10/28 05:34:23;;;;;;;5.43;2.85;;;6.80;99.90;;;;;;4992352;28;20042;-57
2023/10/28 05:36:50;;;;;;;2.40;2.00;;;6.80;99.90;;;;;;4974895;28;20070;-59
2023/10/28 05:39:17;;;;;;;4.05;2.10;;;6.80;99.90;;;;;;4974422;28;20126;-56
2023/10/28 05:41:44;;;;;;;3.15;2.45;;;6.80;99.90;;;;;;4991830;28;20507;-59
2023/10/28 05:44:11;;;;;;;4.68;2.70;;;6.80;99.90;;;;;;4985716;28;20046;-59
2023/10/28 05:46:37;;;;;;;6.25;3.45;;;6.70;99.90;;;;;;4988277;28;20054;-58
2023/10/28 05:49:04;;;;;;;8.00;4.13;;;6.70;99.90;;;;;;4992511;28;20038;-59
2023/10/28 05:51:35;;;;;;;9.60;5.00;;;6.70;99.90;;;;;;4984549;28;20043;-56
2023/10/28 05:54:05;;;;;;;8.90;3.67;;;6.70;99.90;;;;;;4984185;28;20042;-59
2023/10/28 05:56:32;;;;;;;12.13;5.28;;;6.70;99.90;;;;;;4988891;28;20039;-58
2023/10/28 05:59:00;;;;;;;10.35;4.78;;;6.70;99.90;;;;;;4981489;28;20050;-58
2023/10/28 06:01:27;;;;;;;9.07;4.78;;;6.60;99.90;;;;;;4990103;28;20046;-57
2023/10/28 06:03:54;;;;;;;8.05;4.57;;;6.60;99.90;;;;;;4992104;28;20414;-57
2023/10/28 06:06:21;;;;;;;10.95;4.90;;;6.60;99.90;;;;;;4992282;28;20046;-59
2023/10/28 06:08:48;;;;;;;10.48;5.78;;;6.50;99.90;;;;;;4975517;28;20046;-57
2023/10/28 06:11:14;;;;;;;7.85;3.78;;;6.50;99.90;;;;;;4986041;28;20043;-58
2023/10/28 06:13:41;;;;;;;9.63;6.07;;;6.50;99.90;;;;;;4992023;28;20038;-59
2023/10/28 06:16:08;;;;;;;8.57;4.75;;;6.50;99.90;;;;;;4991847;28;20038;-57
2023/10/28 06:18:35;;;;;;;6.10;4.22;;;6.50;99.90;;;;;;4991895;28;20046;-58
2023/10/28 06:21:02;;;;;;;5.63;3.45;;;6.50;99.90;;;;;;4976331;28;20049;-57
2023/10/28 06:23:28;;;;;;;5.15;2.97;;;6.50;99.90;;;;;;4992518;28;20368;-58
2023/10/28 06:25:55;;;;;;;4.13;2.40;;;6.60;99.90;;;;;;4980311;28;20049;-58
2023/10/28 06:28:22;;;;;;;4.93;3.17;;;6.60;99.90;;;;;;4980864;28;20062;-59
2023/10/28 06:30:50;;;;;;;4.95;3.15;;;6.60;99.90;;;;;;4995199;28;20399;-59
2023/10/28 06:33:17;;;;;;;2.28;1.60;;;6.60;99.90;;;;;;4988745;28;20400;-58
2023/10/28 06:35:45;;;;;;;2.17;1.52;;;6.70;99.90;;;;;;4983463;28;20041;-58
2023/10/28 06:38:12;;;;;;;3.42;1.75;;;6.70;99.90;;;;;;4987255;28;20088;-57
2023/10/28 06:40:39;;;;;;;5.40;1.88;;;6.80;99.90;;;;;;4989429;28;20085;-59
2023/10/28 06:43:06;;;;;;;2.90;2.05;;;6.90;99.90;;;;;;4982416;28;20107;-58
2023/10/28 06:45:33;;;;;;;2.97;2.25;;;7.00;99.90;;;;;;4976809;28;20038;-58
2023/10/28 06:48:00;;;;;;;4.00;3.03;;;7.00;99.90;;;;;;5004115;28;20125;-58
2023/10/28 06:50:27;;;;;;;9.73;4.80;;;7.00;99.90;;;;;;4990299;28;20042;-57
2023/10/28 06:52:54;;;;;;;8.32;5.43;;;7.00;99.90;;;;;;4996915;28;20038;-59
2023/10/28 06:55:22;;;;;;;18.08;9.80;;;7.10;99.90;;;;;;4997182;28;20157;-58
2023/10/28 06:57:49;;;;;;;12.23;7.57;;;7.30;99.90;;;;;;4992617;28;20084;-58
2023/10/28 07:00:16;;;;;;;12.18;7.40;;;7.30;99.90;;;;;;4997740;28;20038;-57
2023/10/28 07:02:43;;;;;;;8.13;4.95;;;7.40;99.90;;;;;;5009834;28;20529;-58
2023/10/28 07:05:10;;;;;;;;;;;7.40;99.90;;;;;;4995971;28;20061;-58
2023/10/28 07:07:38;;;;;;;5.10;2.92;;;7.40;99.90;;;;;;4990523;28;19921;-58
2023/10/28 07:10:06;;;;;;;4.82;3.05;;;7.40;99.90;;;;;;4988000;28;20042;-58
2023/10/28 07:12:33;;;;;;;4.25;2.63;;;7.40;99.90;;;;;;4997206;28;20053;-58
2023/10/28 07:15:00;;;;;;;;;;;7.40;99.90;;;;;;4989784;28;20373;-58
2023/10/28 07:17:27;;;;;;;2.90;1.77;;;7.60;99.90;;;;;;4995928;28;20006;-57
2023/10/28 07:19:54;;;;;;;2.47;1.52;;;7.70;99.90;;;;;;4994404;28;20042;-57
2023/10/28 07:22:22;;;;;;;3.03;2.03;;;7.80;99.90;;;;;;4991972;28;20046;-56
2023/10/28 07:24:49;;;;;;;6.20;4.28;;;8.00;99.90;;;;;;4994000;28;20460;-58
2023/10/28 07:27:16;;;;;;;13.20;8.00;;;8.20;99.90;;;;;;4978825;28;20428;-57
2023/10/28 07:29:43;;;;;;;14.45;8.88;;;8.50;99.90;;;;;;4994391;28;20043;-55
2023/10/28 07:32:09;;;;;;;10.38;5.97;;;8.70;99.90;;;;;;4982100;28;20487;-58
2023/10/28 07:34:36;;;;;;;9.63;5.93;;;8.80;99.90;;;;;;4989479;28;20043;-59
2023/10/28 07:37:03;;;;;;;10.95;4.00;;;9.00;99.90;;;;;;4996512;28;20044;-59
2023/10/28 07:39:31;;;;;;;7.20;3.60;;;9.10;99.90;;;;;;4992065;28;20058;-58
2023/10/28 07:41:58;;;;;;;5.90;3.72;;;9.30;99.90;;;;;;4979079;28;20054;-57
2023/10/28 07:44:25;;;;;;;8.10;4.65;;;9.30;99.90;;;;;;4983648;28;20495;-57
2023/10/28 07:46:52;;;;;;;11.05;5.03;;;9.20;99.90;;;;;;4989355;28;20484;-59
2023/10/28 07:49:19;;;;;;;13.45;6.60;;;9.10;99.90;;;;;;4978400;28;20039;-57
2023/10/28 07:51:46;;;;;;;11.50;5.05;;;9.10;99.90;;;;;;4978702;28;20043;-59
2023/10/28 07:54:14;;;;;;;7.60;4.57;;;9.10;99.90;;;;;;4988915;28;20031;-59
2023/10/28 07:56:42;;;;;;;6.80;4.47;;;9.20;99.90;;;;;;4997438;28;20042;-58
2023/10/28 07:59:11;;;;;;;6.18;4.22;;;9.20;99.90;;;;;;4993525;28;20507;-59
2023/10/28 08:01:41;;;;;;;9.00;4.53;;;9.30;99.90;;;;;;4986452;28;20051;-58
2023/10/28 08:04:08;;;;;;;4.70;3.83;;;9.40;99.90;;;;;;4988351;28;20049;-56
2023/10/28 08:06:35;;;;;;;4.95;3.38;;;9.80;99.90;;;;;;4992259;28;20365;-60
2023/10/28 08:09:05;;;;;;;4.65;3.33;;;9.80;99.90;;;;;;4992822;28;20480;-55
2023/10/28 08:11:32;;;;;;;4.90;3.20;;;9.80;99.90;;;;;;4994577;28;20042;-59
2023/10/28 08:14:00;;;;;;;6.40;3.30;;;9.80;99.90;;;;;;4994782;28;20038;-57
2023/10/28 08:16:27;;;;;;;;;;;10.00;99.90;;;;;;4993877;28;20050;-57
2023/10/28 08:18:54;;;;;;;4.47;3.20;;;10.10;99.90;;;;;;4992710;28;19976;-56
2023/10/28 08:21:21;;;;;;;5.18;3.25;;;10.20;99.90;;;;;;4981792;28;20424;-59
2023/10/28 08:23:49;;;;;;;5.15;3.03;;;10.10;99.90;;;;;;4990816;28;20056;-59
2023/10/28 08:26:19;;;;;;;5.45;2.65;;;10.10;99.90;;;;;;4992223;28;20717;-55
2023/10/28 08:28:50;;;;;;;3.58;2.42;;;10.00;99.90;;;;;;4986284;28;20465;-58
2023/10/28 08:31:17;;;;;;;4.50;2.63;;;10.10;99.90;;;;;;4987291;28;20035;-57
2023/10/28 08:33:44;;;;;;;5.28;2.17;;;10.10;99.90;;;;;;4988100;28;20118;-58
2023/10/28 08:36:11;;;;;;;4.05;2.08;;;10.10;99.90;;;;;;4990797;28;20464;-58
2023/10/28 08:38:38;;;;;;;3.78;2.38;;;10.20;99.90;;;;;;4985721;28;20045;-58
2023/10/28 08:41:05;;;;;;;4.68;2.80;;;10.30;99.90;;;;;;4984783;28;20081;-58
2023/10/28 08:43:34;;;;;;;3.63;2.70;;;10.50;99.90;;;;;;4994088;28;20049;-58
2023/10/28 08:46:04;;;;;;;7.47;2.72;;;10.80;99.90;;;;;;4993454;28;20193;-55
2023/10/28 08:48:36;;;;;;;2.47;1.98;;;10.90;99.90;;;;;;4991955;28;20042;-59
2023/10/28 08:51:06;;;;;;;2.83;2.20;;;11.00;99.90;;;;;;4989170;28;20543;-59
2023/10/28 08:53:34;;;;;;;11.57;5.55;;;11.20;99.90;;;;;;4980689;28;20038;-59
2023/10/28 08:56:03;;;;;;;2.97;2.13;;;11.30;99.90;;;;;;4983226;28;20230;-59
2023/10/28 08:58:30;;;;;;;2.50;1.92;;;11.30;99.90;;;;;;4984383;28;20047;-60
2023/10/28 09:01:01;;;;;;;2.05;1.85;;;11.30;99.90;;;;;;4982345;28;20527;-58
2023/10/28 09:03:30;;;;;;;3.08;2.08;;;11.20;99.90;;;;;;4974748;28;20050;-60
2023/10/28 09:05:59;;;;;;;2.42;1.90;;;11.20;99.90;;;;;;4990622;28;20443;-58
2023/10/28 09:08:27;;;;;;;3.28;2.05;;;11.20;99.90;;;;;;4968508;28;20042;-58
2023/10/28 09:10:54;;;;;;;2.67;1.95;;;11.30;99.90;;;;;;4983803;28;20042;-60
2023/10/28 09:13:21;;;;;;;2.88;2.20;;;11.30;99.90;;;;;;4985106;28;20049;-59
2023/10/28 09:15:48;;;;;;;3.15;2.10;;;11.20;99.90;;;;;;4967717;28;20135;-59
2023/10/28 09:18:16;;;;;;;2.55;2.00;;;11.20;99.90;;;;;;4984949;28;20070;-58
2023/10/28 09:20:43;;;;;;;3.13;2.08;;;11.40;99.90;;;;;;4986182;28;20505;-59
2023/10/28 09:23:13;;;;;;;2.42;1.95;;;11.40;99.90;;;;;;4985062;28;20045;-59
2023/10/28 09:25:40;;;;;;;6.30;2.45;;;11.50;99.90;;;;;;4984436;28;20058;-58
2023/10/28 09:28:15;;;;;;;5.20;1.83;;;11.60;99.90;;;;;;4985536;28;20046;-58
2023/10/28 09:30:46;;;;;;;2.42;1.55;;;11.70;99.90;;;;;;4986799;28;20054;-59
2023/10/28 09:33:15;;;;;;;1.80;1.20;;;11.70;99.90;;;;;;4992456;28;20133;-59
2023/10/28 09:35:44;;;;;;;2.33;1.45;;;11.70;99.90;;;;;;4985568;28;20074;-59
2023/10/28 09:38:12;;;;;;;3.97;1.67;;;11.60;99.90;;;;;;4991584;28;20093;-58
2023/10/28 09:40:39;;;;;;;1.50;1.13;;;11.70;99.90;;;;;;4992318;28;20053;-58
2023/10/28 09:43:07;;;;;;;2.33;1.55;;;11.70;99.90;;;;;;4989848;28;20047;-59
2023/10/28 09:45:35;;;;;;;2.33;2.13;;;11.70;99.90;;;;;;4987389;28;20074;-57
2023/10/28 09:48:15;;;;;;;2.05;1.38;;;11.80;99.90;;;;;;4974371;28;20058;-58
2023/10/28 09:50:48;;;;;;;1.98;1.27;;;11.80;99.90;;;;;;4978120;28;20050;-59
2023/10/28 09:53:29;;;;;;;7.07;1.35;;;11.80;99.90;;;;;;4981270;28;20054;-59
2023/10/28 09:55:57;;;;;;;2.00;1.67;;;11.80;99.90;;;;;;4980708;28;20117;-59
2023/10/28 09:58:31;;;;;;;1.27;1.13;;;11.80;99.90;;;;;;4988588;28;20043;-59
2023/10/28 10:01:15;;;;;;;1.85;1.50;;;11.90;99.90;;;;;;4972117;28;20099;-58
2023/10/28 10:03:56;;;;;;;5.07;1.85;;;11.90;99.90;;;;;;4989033;28;20424;-58
2023/10/28 10:06:25;;;;;;;3.08;1.80;;;11.90;99.90;;;;;;4992129;28;20042;-59
2023/10/28 10:08:54;;;;;;;1.55;1.10;;;12.00;99.90;;;;;;4992926;28;20121;-59
2023/10/28 10:11:25;;;;;;;5.63;1.60;;;12.00;99.90;;;;;;4992153;28;20049;-58
2023/10/28 10:13:53;;;;;;;1.30;1.20;;;12.00;99.90;;;;;;4985151;28;20464;-57
2023/10/28 10:16:41;;;;;;;2.45;1.60;;;11.90;99.90;;;;;;4989022;28;20077;-58
2023/10/28 10:19:16;;;;;;;2.33;1.52;;;12.00;99.90;;;;;;4984004;28;20054;-58
2023/10/28 10:21:52;;;;;;;2.67;1.55;;;12.00;99.90;;;;;;4982193;28;20408;-59
2023/10/28 10:24:20;;;;;;;2.78;1.58;;;12.00;99.90;;;;;;4982933;28;20563;-57
2023/10/28 10:26:58;;;;;;;2.45;1.85;;;12.10;99.90;;;;;;4983610;28;20488;-59
2023/10/28 10:29:26;;;;;;;2.15;1.25;;;12.20;99.90;;;;;;4987577;28;20038;-57
2023/10/28 10:31:55;;;;;;;2.17;1.40;;;12.20;99.90;;;;;;4991963;28;20043;-59
2023/10/28 10:34:57;;;;;;;2.92;1.70;;;12.30;99.90;;;;;;4991502;28;20065;-59
2023/10/28 10:37:26;;;;;;;2.38;1.75;;;12.40;99.90;;;;;;4985719;28;20142;-59
2023/10/28 10:39:57;;;;;;;2.55;1.65;;;12.50;99.90;;;;;;4984760;28;20045;-59
2023/10/28 10:42:25;;;;;;;2.10;1.60;;;12.70;99.90;;;;;;4984209;28;20116;-59
2023/10/28 10:44:52;;;;;;;1.77;1.40;;;12.80;99.90;;;;;;4984493;28;20073;-59
2023/10/28 10:47:21;;;;;;;4.82;1.40;;;12.90;99.90;;;;;;4985462;28;20039;-59
2023/10/28 10:49:49;;;;;;;4.30;2.30;;;12.90;99.90;;;;;;4982147;28;20046;-58
2023/10/28 10:52:18;;;;;;;2.72;1.83;;;13.00;99.90;;;;;;4984560;28;20047;-58
2023/10/28 10:54:45;;;;;;;5.15;1.70;;;13.30;99.90;;;;;;4983823;28;20053;-59
2023/10/28 10:57:12;;;;;;;3.50;1.58;;;13.30;99.90;;;;;;4979177;28;20069;-58
2023/10/28 10:59:39;;;;;;;2.50;1.30;;;13.70;99.90;;;;;;4985236;28;20041;-58
2023/10/28 11:02:07;;;;;;;3.00;1.38;;;13.70;99.90;;;;;;4989321;28;20105;-58
2023/10/28 11:04:36;;;;;;;2.53;1.20;;;13.90;99.90;;;;;;4977946;28;20088;-59
2023/10/28 11:07:04;;;;;;;1.83;1.30;;;13.80;99.90;;;;;;4983975;28;20057;-59
2023/10/28 11:09:33;;;;;;;2.65;1.35;;;13.70;99.90;;;;;;4991081;28;20042;-59
2023/10/28 11:12:00;;;;;;;2.70;1.45;;;13.60;99.90;;;;;;4992110;28;20133;-59
2023/10/28 11:14:26;;;;;;;1.85;1.33;;;13.60;99.90;;;;;;4991489;28;20046;-59
2023/10/28 11:16:53;;;;;;;1.27;1.17;;;13.50;99.90;;;;;;4992056;28;20085;-59
2023/10/28 11:19:21;;;;;;;1.48;0.90;;;13.60;99.90;;;;;;4985126;28;20050;-58
2023/10/28 11:21:48;;;;;;;1.70;1.25;;;13.60;99.90;;;;;;4992058;28;20129;-58
2023/10/28 11:24:16;;;;;;;4.65;2.00;;;13.60;99.90;;;;;;4991652;28;20380;-58
2023/10/28 11:26:48;;;;;;;1.45;1.00;;;13.70;99.90;;;;;;4989111;28;20058;-58
2023/10/28 11:29:16;;;;;;;0.80;0.80;;;13.60;99.90;;;;;;4990851;28;20701;-58
2023/10/28 11:31:45;;;;;;;1.40;0.98;;;13.60;99.90;;;;;;4977616;28;20402;-59
2023/10/28 11:34:13;;;;;;;2.83;1.65;;;13.70;99.90;;;;;;4987985;28;20420;-58
2023/10/28 11:36:41;;;;;;;2.75;1.70;;;13.90;99.90;;;;;;4980346;28;20456;-60
2023/10/28 11:39:13;;;;;;;6.47;1.85;;;14.00;99.90;;;;;;4986710;28;20061;-58
2023/10/28 11:41:44;;;;;;;1.25;1.00;;;14.20;99.90;;;;;;4983973;28;20101;-59
2023/10/28 11:44:11;;;;;;;1.58;0.90;;;14.20;99.90;;;;;;4988365;28;20047;-59
2023/10/28 11:46:39;;;;;;;0.75;0.70;;;14.20;99.90;;;;;;4994426;28;20046;-58
2023/10/28 11:49:05;;;;;;;;;;;14.20;99.90;;;;;;4993145;28;20062;-58
2023/10/28 11:51:33;;;;;;;1.45;0.90;;;14.10;99.90;;;;;;4993583;28;19928;-59
2023/10/28 11:54:00;;;;;;;2.05;1.20;;;14.00;99.90;;;;;;4985572;28;20054;-59
2023/10/28 11:56:27;;;;;;;;;;;13.90;99.90;;;;;;4991477;28;20047;-58
2023/10/28 11:58:54;;;;;;;9.48;1.13;;;13.90;99.90;;;;;;4976867;28;19939;-62
2023/10/28 12:01:23;;;;;;;1.73;0.93;;;14.00;99.90;;;;;;4989077;28;20049;-59
2023/10/28 12:03:50;;;;;;;1.52;1.00;;;14.00;99.90;;;;;;4988880;28;20126;-58
2023/10/28 12:06:16;;;;;;;1.48;0.90;;;13.90;99.90;;;;;;5001214;28;20384;-59
2023/10/28 12:08:59;;;;;;;0.65;0.57;;;13.80;99.90;;;;;;4989730;28;20403;-59
2023/10/28 12:11:27;;;;;;;0.90;0.70;;;13.90;99.90;;;;;;4983493;28;20407;-59
2023/10/28 12:13:58;;;;;;;0.80;0.80;;;13.90;99.90;;;;;;4986346;28;20061;-58
2023/10/28 12:16:26;;;;;;;1.55;0.77;;;14.00;99.90;;;;;;4960999;28;20125;-59
2023/10/28 12:18:53;;;;;;;1.13;0.80;;;14.10;99.90;;;;;;4982253;28;20704;-58
2023/10/28 12:21:20;;;;;;;0.52;0.47;;;14.20;99.90;;;;;;4993816;28;20552;-59
2023/10/28 12:23:48;;;;;;;1.05;0.70;;;14.20;99.90;;;;;;4974473;28;20047;-62
2023/10/28 12:26:15;;;;;;;3.33;1.05;;;14.20;99.90;;;;;;4974175;28;20046;-62
2023/10/28 12:28:47;;;;;;;0.63;0.50;;;14.30;99.90;;;;;;4993148;28;20467;-61
2023/10/28 12:31:14;;;;;;;1.05;0.60;;;14.30;99.90;;;;;;4986559;28;20057;-60
2023/10/28 12:33:41;;;;;;;1.08;0.93;;;14.30;99.90;;;;;;4986490;28;20061;-62
2023/10/28 12:36:10;;;;;;;2.28;0.80;;;14.40;99.90;;;;;;4990372;28;20053;-61
2023/10/28 12:38:39;;;;;;;1.23;0.60;;;14.40;99.90;;;;;;4986478;28;20038;-60
2023/10/28 12:41:06;;;;;;;1.45;0.90;;;14.50;99.90;;;;;;4990939;28;20519;-59
2023/10/28 12:43:33;;;;;;;1.10;0.75;;;14.50;99.90;;;;;;4986609;28;20735;-59
2023/10/28 12:46:00;;;;;;;1.48;0.77;;;14.60;99.90;;;;;;4986386;28;20042;-59
2023/10/28 12:48:28;;;;;;;1.45;0.90;;;14.60;99.90;;;;;;4992251;28;20043;-60
2023/10/28 12:50:54;;;;;;;2.55;0.80;;;14.60;99.90;;;;;;4986446;28;20038;-60
2023/10/28 12:53:21;;;;;;;1.60;0.95;;;14.60;99.90;;;;;;4988283;28;20026;-60
2023/10/28 12:55:48;;;;;;;1.13;0.82;;;14.60;99.90;;;;;;4986990;28;20053;-60
2023/10/28 12:58:16;;;;;;;1.50;0.88;;;14.70;99.90;;;;;;4983458;28;20046;-60
2023/10/28 13:00:44;;;;;;;2.75;1.02;;;14.80;99.90;;;;;;4988643;28;20104;-60